Orbital elements of FENGYUN 1C DEB
| Launched | 9 May 1999 |
| Flight ended | – |
| Launch site | Taiyuan Space Center, PRC |
| Owner | People's Republic of China |
| NORAD ID | 35152 |
| Date fetched |
Epoch osculation |
Inc. [°] |
Ecc. | RA asc node [hr] |
Arg Peri. [°] |
Mean anom [°] |
Mean motion [rev/day] |
Abs. mag |
| Date fetched |
Epoch osculation |
Inc. [°] |
Ecc. | RA asc node [hr] |
Arg Peri. [°] |
Mean anom [°] |
Mean motion [rev/day] |
Abs. mag |
| 2026 May 01 17:56 | 2026 Apr 27 05:50:49 | 99.8251 | 0.01942 | 20.6213 | 24.9876 | 336.0521 | 13.76660 | – |
| 2026 Apr 30 17:56 | 2026 Apr 27 05:50:49 | 99.8251 | 0.01942 | 20.6213 | 24.9876 | 336.0521 | 13.76660 | – |
| 2026 Apr 29 17:57 | 2026 Apr 20 23:50:33 | 99.8251 | 0.01944 | 20.1911 | 41.1401 | 336.0521 | 13.76660 | – |
| 2026 Apr 28 17:56 | 2026 Apr 20 23:50:33 | 99.8251 | 0.01944 | 20.1911 | 41.1401 | 336.0521 | 13.76660 | – |
| 2026 Apr 27 17:58 | 2026 Apr 20 23:50:33 | 99.8251 | 0.01944 | 20.1911 | 41.1401 | 336.0521 | 13.76660 | – |
| 2026 Apr 26 17:58 | 2026 Apr 20 23:50:33 | 99.8251 | 0.01944 | 20.1911 | 41.1401 | 336.0521 | 13.76660 | – |
| 2026 Apr 25 17:58 | 2026 Apr 20 23:50:33 | 99.8251 | 0.01944 | 20.1911 | 41.1401 | 336.0521 | 13.76660 | – |
| 2026 Apr 24 17:59 | 2026 Apr 20 23:50:33 | 99.8251 | 0.01944 | 20.1911 | 41.1401 | 336.0521 | 13.76660 | – |
| 2026 Apr 23 17:57 | 2026 Apr 19 05:58:50 | 99.8252 | 0.01944 | 20.0710 | 45.6429 | 336.0521 | 13.76660 | – |
| 2026 Apr 22 17:57 | 2026 Apr 19 05:58:50 | 99.8252 | 0.01944 | 20.0710 | 45.6429 | 336.0521 | 13.76660 | – |
| 2026 Apr 21 17:57 | 2026 Apr 19 05:58:50 | 99.8252 | 0.01944 | 20.0710 | 45.6429 | 336.0521 | 13.76660 | – |
| 2026 Apr 20 17:57 | 2026 Apr 19 05:58:50 | 99.8252 | 0.01944 | 20.0710 | 45.6429 | 336.0521 | 13.76660 | – |
| 2026 Apr 19 17:58 | 2026 Apr 19 05:58:50 | 99.8252 | 0.01944 | 20.0710 | 45.6429 | 336.0521 | 13.76660 | – |
| 2026 Apr 18 17:56 | 2026 Apr 13 06:57:06 | 99.8266 | 0.01946 | 19.6609 | 61.0410 | 336.0521 | 13.76660 | – |
| 2026 Apr 16 17:57 | 2026 Apr 13 06:57:06 | 99.8266 | 0.01946 | 19.6609 | 61.0410 | 336.0521 | 13.76660 | – |
| 2026 Apr 14 17:57 | 2026 Apr 13 06:57:06 | 99.8266 | 0.01946 | 19.6609 | 61.0410 | 336.0521 | 13.76660 | – |
| 2026 Apr 13 17:57 | 2026 Apr 13 06:57:06 | 99.8266 | 0.01946 | 19.6609 | 61.0410 | 336.0521 | 13.76660 | – |
| 2026 Apr 12 17:57 | 2026 Apr 08 06:35:50 | 99.8253 | 0.01948 | 19.3156 | 74.0040 | 336.0521 | 13.76660 | – |
| 2026 Apr 11 17:57 | 2026 Apr 08 06:35:50 | 99.8253 | 0.01948 | 19.3156 | 74.0040 | 336.0521 | 13.76660 | – |
| 2026 Apr 10 17:58 | 2026 Apr 08 06:35:50 | 99.8253 | 0.01948 | 19.3156 | 74.0040 | 336.0521 | 13.76660 | – |
| 2026 Apr 09 18:01 | 2026 Apr 08 06:35:50 | 99.8253 | 0.01948 | 19.3156 | 74.0040 | 336.0521 | 13.76660 | – |
| 2026 Apr 08 17:57 | 2026 Apr 08 06:35:50 | 99.8253 | 0.01948 | 19.3156 | 74.0040 | 336.0521 | 13.76660 | – |
| 2026 Apr 07 17:57 | 2026 Mar 31 18:56:06 | 99.8261 | 0.01949 | 18.8003 | 93.2991 | 336.0521 | 13.76660 | – |
| 2026 Apr 06 17:57 | 2026 Mar 31 18:56:06 | 99.8261 | 0.01949 | 18.8003 | 93.2991 | 336.0521 | 13.76660 | – |
| 2026 Apr 05 17:56 | 2026 Mar 31 18:56:06 | 99.8261 | 0.01949 | 18.8003 | 93.2991 | 336.0521 | 13.76660 | – |
| 2026 Apr 04 17:57 | 2026 Mar 31 18:56:06 | 99.8261 | 0.01949 | 18.8003 | 93.2991 | 336.0521 | 13.76660 | – |